sensor_id;sensor_type;location;lat;lon;timestamp;pressure;altitude;pressure_sealevel;temperature;humidity
55550;BME280;41397;49.972;18.944;2023-03-04T00:01:25;102029.59;;;6.18;64.14
55550;BME280;41397;49.972;18.944;2023-03-04T00:04:27;102021.49;;;6.16;64.04
55550;BME280;41397;49.972;18.944;2023-03-04T00:07:28;102019.55;;;6.20;64.21
55550;BME280;41397;49.972;18.944;2023-03-04T00:10:30;102014.30;;;6.15;63.91
55550;BME280;41397;49.972;18.944;2023-03-04T00:13:31;102012.41;;;6.17;63.97
55550;BME280;41397;49.972;18.944;2023-03-04T00:16:33;102014.16;;;6.18;64.10
55550;BME280;41397;49.972;18.944;2023-03-04T00:19:34;102006.90;;;6.19;64.14
55550;BME280;41397;49.972;18.944;2023-03-04T00:22:37;101993.45;;;6.16;64.02
55550;BME280;41397;49.972;18.944;2023-03-04T00:25:38;101988.84;;;6.18;64.01
55550;BME280;41397;49.972;18.944;2023-03-04T00:28:40;101983.45;;;6.16;64.07
55550;BME280;41397;49.972;18.944;2023-03-04T00:31:41;101986.13;;;6.18;64.00
55550;BME280;41397;49.972;18.944;2023-03-04T00:34:45;101982.44;;;6.19;64.01
55550;BME280;41397;49.972;18.944;2023-03-04T00:37:46;101982.39;;;6.20;63.89
55550;BME280;41397;49.972;18.944;2023-03-04T00:40:47;101970.52;;;6.23;63.75
55550;BME280;41397;49.972;18.944;2023-03-04T00:43:49;101967.94;;;6.20;63.94
55550;BME280;41397;49.972;18.944;2023-03-04T00:46:53;101968.80;;;6.20;63.91
55550;BME280;41397;49.972;18.944;2023-03-04T00:49:54;101964.20;;;6.22;63.74
55550;BME280;41397;49.972;18.944;2023-03-04T00:52:56;101963.24;;;6.23;64.00
55550;BME280;41397;49.972;18.944;2023-03-04T00:55:57;101954.20;;;6.23;63.84
55550;BME280;41397;49.972;18.944;2023-03-04T00:59:01;101958.63;;;6.26;63.79
55550;BME280;41397;49.972;18.944;2023-03-04T01:02:02;101953.25;;;6.24;63.68
55550;BME280;41397;49.972;18.944;2023-03-04T01:05:05;101941.37;;;6.27;63.63
55550;BME280;41397;49.972;18.944;2023-03-04T01:08:06;101940.48;;;6.26;64.06
55550;BME280;41397;49.972;18.944;2023-03-04T01:11:09;101937.91;;;6.23;63.77
55550;BME280;41397;49.972;18.944;2023-03-04T01:14:10;101925.06;;;6.27;63.79
55550;BME280;41397;49.972;18.944;2023-03-04T01:17:12;101918.75;;;6.26;63.35
55550;BME280;41397;49.972;18.944;2023-03-04T01:20:14;101905.90;;;6.30;63.78
55550;BME280;41397;49.972;18.944;2023-03-04T01:23:17;101908.56;;;6.31;63.49
55550;BME280;41397;49.972;18.944;2023-03-04T01:26:18;101902.11;;;6.34;63.34
55550;BME280;41397;49.972;18.944;2023-03-04T01:29:20;101902.02;;;6.35;63.39
55550;BME280;41397;49.972;18.944;2023-03-04T01:32:21;101895.65;;;6.36;63.36
55550;BME280;41397;49.972;18.944;2023-03-04T01:35:25;101885.80;;;6.34;63.48
55550;BME280;41397;49.972;18.944;2023-03-04T01:38:26;101869.41;;;6.35;63.54
55550;BME280;41397;49.972;18.944;2023-03-04T01:41:28;101869.30;;;6.38;63.41
55550;BME280;41397;49.972;18.944;2023-03-04T01:44:29;101860.48;;;6.33;63.19
55550;BME280;41397;49.972;18.944;2023-03-04T01:47:34;101858.63;;;6.34;63.18
55550;BME280;41397;49.972;18.944;2023-03-04T01:50:36;101863.05;;;6.36;63.18
55550;BME280;41397;49.972;18.944;2023-03-04T01:53:37;101859.52;;;6.34;63.21
55550;BME280;41397;49.972;18.944;2023-03-04T01:56:39;101871.40;;;6.32;63.27
55550;BME280;41397;49.972;18.944;2023-03-04T01:59:42;101859.14;;;6.23;63.17
55550;BME280;41397;49.972;18.944;2023-03-04T02:02:47;101847.16;;;6.27;63.11
55550;BME280;41397;49.972;18.944;2023-03-04T02:05:51;101849.09;;;6.25;63.25
55550;BME280;41397;49.972;18.944;2023-03-04T02:08:53;101841.87;;;6.24;63.26
55550;BME280;41397;49.972;18.944;2023-03-04T02:11:55;101834.60;;;6.25;63.12
55550;BME280;41397;49.972;18.944;2023-03-04T02:14:57;101831.82;;;6.26;62.92
55550;BME280;41397;49.972;18.944;2023-03-04T02:17:59;101823.67;;;6.26;62.94
55550;BME280;41397;49.972;18.944;2023-03-04T02:21:09;101823.62;;;6.28;62.80
55550;BME280;41397;49.972;18.944;2023-03-04T02:24:24;101820.96;;;6.26;62.92
55550;BME280;41397;49.972;18.944;2023-03-04T02:27:27;101813.69;;;6.27;62.73
55550;BME280;41397;49.972;18.944;2023-03-04T02:30:28;101811.05;;;6.25;62.78
55550;BME280;41397;49.972;18.944;2023-03-04T02:33:30;101812.09;;;6.22;62.60
55550;BME280;41397;49.972;18.944;2023-03-04T02:36:34;101821.97;;;6.23;62.68
55550;BME280;41397;49.972;18.944;2023-03-04T02:39:42;101814.80;;;6.22;62.55
55550;BME280;41397;49.972;18.944;2023-03-04T02:42:45;101803.41;;;6.14;62.42
55550;BME280;41397;49.972;18.944;2023-03-04T02:45:50;101808.77;;;6.16;62.17
55550;BME280;41397;49.972;18.944;2023-03-04T02:48:52;101794.30;;;6.15;62.51
55550;BME280;41397;49.972;18.944;2023-03-04T02:52:03;101784.31;;;6.16;62.26
55550;BME280;41397;49.972;18.944;2023-03-04T02:55:05;101787.03;;;6.16;62.21
55550;BME280;41397;49.972;18.944;2023-03-04T02:58:11;101780.00;;;6.12;62.12
55550;BME280;41397;49.972;18.944;2023-03-04T03:01:13;101778.21;;;6.11;61.87
55550;BME280;41397;49.972;18.944;2023-03-04T03:04:14;101763.10;;;6.05;61.88
55550;BME280;41397;49.972;18.944;2023-03-04T03:07:16;101765.14;;;6.00;61.92
55550;BME280;41397;49.972;18.944;2023-03-04T03:10:19;101765.29;;;5.97;61.90
55550;BME280;41397;49.972;18.944;2023-03-04T03:13:21;101754.58;;;5.94;61.84
55550;BME280;41397;49.972;18.944;2023-03-04T03:16:22;101751.16;;;5.89;62.05
55550;BME280;41397;49.972;18.944;2023-03-04T03:19:23;101740.45;;;5.86;61.86
55550;BME280;41397;49.972;18.944;2023-03-04T03:22:29;101741.56;;;5.82;61.80
55550;BME280;41397;49.972;18.944;2023-03-04T03:25:31;101733.48;;;5.80;61.73
55550;BME280;41397;49.972;18.944;2023-03-04T03:28:32;101737.21;;;5.77;61.65
55550;BME280;41397;49.972;18.944;2023-03-04T03:31:33;101730.97;;;5.75;61.74
55550;BME280;41397;49.972;18.944;2023-03-04T03:34:37;101738.47;;;5.70;61.78
55550;BME280;41397;49.972;18.944;2023-03-04T03:37:38;101724.96;;;5.69;61.61
55550;BME280;41397;49.972;18.944;2023-03-04T03:40:40;101730.38;;;5.69;61.67
55550;BME280;41397;49.972;18.944;2023-03-04T03:43:41;101730.88;;;5.58;61.91
55550;BME280;41397;49.972;18.944;2023-03-04T03:46:45;101729.27;;;5.54;62.20
55550;BME280;41397;49.972;18.944;2023-03-04T03:49:47;101720.32;;;5.52;62.16
55550;BME280;41397;49.972;18.944;2023-03-04T03:52:49;101728.95;;;5.41;62.51
55550;BME280;41397;49.972;18.944;2023-03-04T03:55:50;101730.78;;;5.41;62.40
55550;BME280;41397;49.972;18.944;2023-03-04T03:58:53;101733.49;;;5.41;62.42
55550;BME280;41397;49.972;18.944;2023-03-04T04:01:55;101730.43;;;5.28;62.49
55550;BME280;41397;49.972;18.944;2023-03-04T04:04:56;101736.42;;;5.16;62.82
55550;BME280;41397;49.972;18.944;2023-03-04T04:07:58;101736.07;;;5.03;63.34
55550;BME280;41397;49.972;18.944;2023-03-04T04:11:01;101733.55;;;4.98;63.27
55550;BME280;41397;49.972;18.944;2023-03-04T04:14:03;101724.73;;;4.93;63.29
55550;BME280;41397;49.972;18.944;2023-03-04T04:17:04;101729.87;;;4.79;63.68
55550;BME280;41397;49.972;18.944;2023-03-04T04:20:07;101730.29;;;4.90;63.77
55550;BME280;41397;49.972;18.944;2023-03-04T04:23:10;101726.88;;;4.85;63.48
55550;BME280;41397;49.972;18.944;2023-03-04T04:26:12;101734.14;;;4.84;63.57
55550;BME280;41397;49.972;18.944;2023-03-04T04:29:14;101743.82;;;4.70;63.78
55550;BME280;41397;49.972;18.944;2023-03-04T04:32:16;101744.05;;;4.63;64.17
55550;BME280;41397;49.972;18.944;2023-03-04T04:35:18;101737.41;;;4.50;64.30
55550;BME280;41397;49.972;18.944;2023-03-04T04:38:19;101732.43;;;4.61;64.07
55550;BME280;41397;49.972;18.944;2023-03-04T04:41:24;101739.03;;;4.54;64.43
55550;BME280;41397;49.972;18.944;2023-03-04T04:44:26;101740.61;;;4.38;65.08
55550;BME280;41397;49.972;18.944;2023-03-04T04:47:27;101741.44;;;4.40;64.83
55550;BME280;41397;49.972;18.944;2023-03-04T04:50:29;101740.21;;;4.25;64.97
55550;BME280;41397;49.972;18.944;2023-03-04T04:53:30;101750.44;;;4.40;64.79
55550;BME280;41397;49.972;18.944;2023-03-04T04:56:32;101754.15;;;4.38;64.78
55550;BME280;41397;49.972;18.944;2023-03-04T04:59:37;101753.98;;;4.42;64.77
55550;BME280;41397;49.972;18.944;2023-03-04T05:02:38;101752.70;;;4.51;64.73
55550;BME280;41397;49.972;18.944;2023-03-04T05:05:41;101748.68;;;4.61;64.74
55550;BME280;41397;49.972;18.944;2023-03-04T05:08:42;101749.24;;;4.70;64.68
55550;BME280;41397;49.972;18.944;2023-03-04T05:11:44;101739.10;;;4.75;64.88
55550;BME280;41397;49.972;18.944;2023-03-04T05:14:45;101733.27;;;4.84;64.52
55550;BME280;41397;49.972;18.944;2023-03-04T05:17:46;101740.21;;;4.91;64.48
55550;BME280;41397;49.972;18.944;2023-03-04T05:20:51;101746.27;;;4.96;64.36
55550;BME280;41397;49.972;18.944;2023-03-04T05:23:53;101741.00;;;4.93;64.54
55550;BME280;41397;49.972;18.944;2023-03-04T05:26:54;101744.27;;;5.01;64.34
55550;BME280;41397;49.972;18.944;2023-03-04T05:29:57;101740.11;;;4.93;64.45
55550;BME280;41397;49.972;18.944;2023-03-04T05:33:01;101749.08;;;4.95;64.80
55550;BME280;41397;49.972;18.944;2023-03-04T05:36:04;101752.61;;;4.97;64.47
55550;BME280;41397;49.972;18.944;2023-03-04T05:39:06;101751.10;;;4.89;64.56
55550;BME280;41397;49.972;18.944;2023-03-04T05:42:08;101760.10;;;4.90;64.72
55550;BME280;41397;49.972;18.944;2023-03-04T05:45:10;101769.80;;;4.96;64.77
55550;BME280;41397;49.972;18.944;2023-03-04T05:48:11;101766.16;;;4.97;64.49
55550;BME280;41397;49.972;18.944;2023-03-04T05:51:12;101775.35;;;4.93;64.67
55550;BME280;41397;49.972;18.944;2023-03-04T05:54:14;101778.07;;;4.93;64.58
55550;BME280;41397;49.972;18.944;2023-03-04T05:57:19;101779.08;;;4.90;64.68
55550;BME280;41397;49.972;18.944;2023-03-04T06:00:38;101778.20;;;4.89;64.82
55550;BME280;41397;49.972;18.944;2023-03-04T06:03:47;101779.08;;;4.90;64.78
55550;BME280;41397;49.972;18.944;2023-03-04T06:06:51;101773.47;;;4.95;64.80
55550;BME280;41397;49.972;18.944;2023-03-04T06:09:53;101770.67;;;4.96;64.87
55550;BME280;41397;49.972;18.944;2023-03-04T06:12:55;101772.23;;;4.81;65.30
55550;BME280;41397;49.972;18.944;2023-03-04T06:16:06;101751.50;;;4.80;65.01
55550;BME280;41397;49.972;18.944;2023-03-04T06:19:09;101769.66;;;4.99;64.71
55550;BME280;41397;49.972;18.944;2023-03-04T06:22:10;101784.45;;;4.92;64.47
55550;BME280;41397;49.972;18.944;2023-03-04T06:25:15;101784.39;;;4.71;64.96
55550;BME280;41397;49.972;18.944;2023-03-04T06:28:17;101788.36;;;4.62;65.37
55550;BME280;41397;49.972;18.944;2023-03-04T06:31:25;101799.32;;;4.59;65.68
55550;BME280;41397;49.972;18.944;2023-03-04T06:34:27;101799.06;;;4.65;65.34
55550;BME280;41397;49.972;18.944;2023-03-04T06:37:29;101792.34;;;4.76;65.39
55550;BME280;41397;49.972;18.944;2023-03-04T06:40:31;101782.74;;;4.89;64.99
55550;BME280;41397;49.972;18.944;2023-03-04T06:43:33;101776.24;;;4.93;65.00
55550;BME280;41397;49.972;18.944;2023-03-04T06:46:37;101781.46;;;4.98;64.64
55550;BME280;41397;49.972;18.944;2023-03-04T06:49:39;101774.77;;;5.06;64.37
55550;BME280;41397;49.972;18.944;2023-03-04T06:52:40;101771.91;;;5.09;64.31
55550;BME280;41397;49.972;18.944;2023-03-04T06:55:42;101772.61;;;5.15;64.51
55550;BME280;41397;49.972;18.944;2023-03-04T06:58:44;101773.43;;;5.17;64.33
55550;BME280;41397;49.972;18.944;2023-03-04T07:01:46;101772.28;;;5.22;63.97
55550;BME280;41397;49.972;18.944;2023-03-04T07:04:49;101770.30;;;5.26;64.20
55550;BME280;41397;49.972;18.944;2023-03-04T07:07:51;101775.72;;;5.26;64.20
55550;BME280;41397;49.972;18.944;2023-03-04T07:10:52;101774.93;;;5.24;64.30
55550;BME280;41397;49.972;18.944;2023-03-04T07:13:54;101777.37;;;5.30;64.17
55550;BME280;41397;49.972;18.944;2023-03-04T07:17:06;101775.48;;;5.32;64.00
55550;BME280;41397;49.972;18.944;2023-03-04T07:20:08;101776.35;;;5.32;63.90
55550;BME280;41397;49.972;18.944;2023-03-04T07:23:10;101779.07;;;5.32;64.03
55550;BME280;41397;49.972;18.944;2023-03-04T07:26:14;101782.37;;;5.39;64.23
55550;BME280;41397;49.972;18.944;2023-03-04T07:29:15;101793.91;;;5.44;63.81
55550;BME280;41397;49.972;18.944;2023-03-04T07:32:17;101791.34;;;5.41;63.83
55550;BME280;41397;49.972;18.944;2023-03-04T07:35:18;101790.46;;;5.41;63.74
55550;BME280;41397;49.972;18.944;2023-03-04T07:38:20;101799.39;;;5.43;63.69
55550;BME280;41397;49.972;18.944;2023-03-04T07:41:23;101792.89;;;5.47;63.53
55550;BME280;41397;49.972;18.944;2023-03-04T07:44:25;101792.89;;;5.47;63.45
55550;BME280;41397;49.972;18.944;2023-03-04T07:47:27;101797.21;;;5.51;63.33
55550;BME280;41397;49.972;18.944;2023-03-04T07:50:28;101791.79;;;5.51;63.45
55550;BME280;41397;49.972;18.944;2023-03-04T07:53:31;101795.13;;;5.58;63.36
55550;BME280;41397;49.972;18.944;2023-03-04T07:56:33;101794.70;;;5.67;63.35
55550;BME280;41397;49.972;18.944;2023-03-04T07:59:35;101793.91;;;5.65;62.74
55550;BME280;41397;49.972;18.944;2023-03-04T08:02:36;101808.13;;;5.70;62.96
55550;BME280;41397;49.972;18.944;2023-03-04T08:05:38;101810.78;;;5.71;62.95
55550;BME280;41397;49.972;18.944;2023-03-04T08:08:40;101800.75;;;5.73;63.19
55550;BME280;41397;49.972;18.944;2023-03-04T08:11:43;101815.20;;;5.53;62.98
55550;BME280;41397;49.972;18.944;2023-03-04T08:14:45;101812.28;;;5.58;62.93
55550;BME280;41397;49.972;18.944;2023-03-04T08:17:47;101820.43;;;5.58;62.98
55550;BME280;41397;49.972;18.944;2023-03-04T08:20:48;101812.95;;;5.43;63.28
55550;BME280;41397;49.972;18.944;2023-03-04T08:23:50;101815.80;;;5.40;63.24
55550;BME280;41397;49.972;18.944;2023-03-04T08:26:53;101825.64;;;5.42;63.03
55550;BME280;41397;49.972;18.944;2023-03-04T08:30:00;101820.76;;;5.50;63.12
55550;BME280;41397;49.972;18.944;2023-03-04T08:33:02;101825.85;;;5.58;63.06
55550;BME280;41397;49.972;18.944;2023-03-04T08:36:05;101822.66;;;5.69;63.11
55550;BME280;41397;49.972;18.944;2023-03-04T08:39:08;101830.38;;;5.78;62.48
55550;BME280;41397;49.972;18.944;2023-03-04T08:42:14;101823.06;;;5.80;62.25
55550;BME280;41397;49.972;18.944;2023-03-04T08:45:16;101820.28;;;5.82;62.08
55550;BME280;41397;49.972;18.944;2023-03-04T08:48:18;101825.71;;;5.82;62.12
55550;BME280;41397;49.972;18.944;2023-03-04T08:51:20;101821.84;;;5.87;62.17
55550;BME280;41397;49.972;18.944;2023-03-04T08:54:21;101821.89;;;5.86;62.37
55550;BME280;41397;49.972;18.944;2023-03-04T08:57:26;101824.30;;;5.93;62.05
55550;BME280;41397;49.972;18.944;2023-03-04T09:00:34;101832.30;;;5.96;61.99
55550;BME280;41397;49.972;18.944;2023-03-04T09:03:36;101829.67;;;5.95;61.85
55550;BME280;41397;49.972;18.944;2023-03-04T09:06:45;101825.99;;;5.96;61.76
55550;BME280;41397;49.972;18.944;2023-03-04T09:09:48;101831.41;;;5.96;61.72
55550;BME280;41397;49.972;18.944;2023-03-04T09:12:49;101835.84;;;5.98;61.80
55550;BME280;41397;49.972;18.944;2023-03-04T09:15:52;101832.16;;;5.99;61.57
55550;BME280;41397;49.972;18.944;2023-03-04T09:18:56;101826.51;;;6.04;61.89
55550;BME280;41397;49.972;18.944;2023-03-04T09:21:58;101832.97;;;6.02;61.73
55550;BME280;41397;49.972;18.944;2023-03-04T09:25:02;101839.13;;;6.05;61.78
55550;BME280;41397;49.972;18.944;2023-03-04T09:28:05;101842.47;;;6.12;61.50
55550;BME280;41397;49.972;18.944;2023-03-04T09:31:14;101835.34;;;6.09;61.72
55550;BME280;41397;49.972;18.944;2023-03-04T09:34:16;101836.94;;;6.13;61.68
55550;BME280;41397;49.972;18.944;2023-03-04T09:37:18;101834.22;;;6.13;62.02
55550;BME280;41397;49.972;18.944;2023-03-04T09:43:37;101819.25;;;6.05;62.16
55550;BME280;41397;49.972;18.944;2023-03-04T09:46:44;101816.62;;;6.03;61.86
55550;BME280;41397;49.972;18.944;2023-03-04T09:50:02;101814.99;;;5.99;62.09
55550;BME280;41397;49.972;18.944;2023-03-04T09:56:16;101816.09;;;5.95;62.23
55550;BME280;41397;49.972;18.944;2023-03-04T09:59:30;101813.14;;;5.99;62.03
55550;BME280;41397;49.972;18.944;2023-03-04T10:02:42;101803.91;;;6.04;62.42
55550;BME280;41397;49.972;18.944;2023-03-04T10:05:54;101798.54;;;6.02;62.04
55550;BME280;41397;49.972;18.944;2023-03-04T10:09:20;101788.55;;;6.03;61.73
55550;BME280;41397;49.972;18.944;2023-03-04T10:12:18;101796.29;;;6.12;70.81
55550;BME280;41397;49.972;18.944;2023-03-04T10:15:34;101800.34;;;6.22;67.48
55550;BME280;41397;49.972;18.944;2023-03-04T10:18:49;101803.63;;;6.48;68.83
55550;BME280;41397;49.972;18.944;2023-03-04T10:21:52;101783.64;;;6.49;62.55
55550;BME280;41397;49.972;18.944;2023-03-04T10:24:58;101782.71;;;6.50;61.53
55550;BME280;41397;49.972;18.944;2023-03-04T10:28:20;101785.64;;;6.45;60.77
55550;BME280;41397;49.972;18.944;2023-03-04T10:31:33;101778.73;;;6.38;60.63
55550;BME280;41397;49.972;18.944;2023-03-04T10:34:36;101775.14;;;6.37;60.66
55550;BME280;41397;49.972;18.944;2023-03-04T10:37:49;101768.10;;;6.33;60.56
55550;BME280;41397;49.972;18.944;2023-03-04T10:40:51;101761.04;;;6.29;60.85
55550;BME280;41397;49.972;18.944;2023-03-04T10:44:02;101759.35;;;6.27;60.70
55550;BME280;41397;49.972;18.944;2023-03-04T10:47:09;101748.79;;;6.20;60.72
55550;BME280;41397;49.972;18.944;2023-03-04T10:50:22;101749.88;;;6.16;60.48
55550;BME280;41397;49.972;18.944;2023-03-04T10:53:31;101749.10;;;6.14;60.40
55550;BME280;41397;49.972;18.944;2023-03-04T10:56:40;101739.83;;;6.18;60.80
55550;BME280;41397;49.972;18.944;2023-03-04T11:06:24;101743.21;;;6.23;60.69
55550;BME280;41397;49.972;18.944;2023-03-04T11:09:28;101734.59;;;6.33;60.25
55550;BME280;41397;49.972;18.944;2023-03-04T11:12:34;101738.58;;;6.44;60.53
55550;BME280;41397;49.972;18.944;2023-03-04T11:18:54;101721.89;;;6.52;60.29
55550;BME280;41397;49.972;18.944;2023-03-04T11:21:59;101727.89;;;6.59;60.42
55550;BME280;41397;49.972;18.944;2023-03-04T11:25:07;101722.07;;;6.66;60.28
55550;BME280;41397;49.972;18.944;2023-03-04T11:28:21;101714.78;;;6.67;60.15
55550;BME280;41397;49.972;18.944;2023-03-04T11:31:34;101703.21;;;6.81;59.98
55550;BME280;41397;49.972;18.944;2023-03-04T11:34:50;101696.89;;;6.80;59.84
55550;BME280;41397;49.972;18.944;2023-03-04T11:41:19;101692.10;;;6.85;59.63
55550;BME280;41397;49.972;18.944;2023-03-04T11:44:20;101685.79;;;6.85;59.52
55550;BME280;41397;49.972;18.944;2023-03-04T12:13:23;101654.02;;;7.03;59.09
55550;BME280;41397;49.972;18.944;2023-03-04T12:16:38;101656.50;;;7.07;58.98
55550;BME280;41397;49.972;18.944;2023-03-04T12:26:23;101646.26;;;7.13;58.83
55550;BME280;41397;49.972;18.944;2023-03-04T12:32:57;101644.48;;;7.11;58.69
55550;BME280;41397;49.972;18.944;2023-03-04T12:36:24;101642.73;;;7.10;58.57
55550;BME280;41397;49.972;18.944;2023-03-04T12:55:41;101629.68;;;7.50;58.02
55550;BME280;41397;49.972;18.944;2023-03-04T12:58:37;101622.21;;;7.54;57.99
55550;BME280;41397;49.972;18.944;2023-03-04T13:01:42;101619.15;;;7.60;57.36
55550;BME280;41397;49.972;18.944;2023-03-04T13:08:55;101610.98;;;7.60;57.58
55550;BME280;41397;49.972;18.944;2023-03-04T13:14:30;101606.08;;;7.67;57.56
55550;BME280;41397;49.972;18.944;2023-03-04T13:30:39;101591.57;;;7.82;57.12
55550;BME280;41397;49.972;18.944;2023-03-04T13:33:47;101591.31;;;7.87;56.56
55550;BME280;41397;49.972;18.944;2023-03-04T13:36:54;101596.77;;;7.87;56.45
55550;BME280;41397;49.972;18.944;2023-03-04T13:46:28;101587.61;;;7.88;56.02
55550;BME280;41397;49.972;18.944;2023-03-04T13:49:30;101595.90;;;7.86;55.61
55550;BME280;41397;49.972;18.944;2023-03-04T13:52:41;101589.39;;;7.89;56.06
55550;BME280;41397;49.972;18.944;2023-03-04T14:02:18;101585.43;;;7.78;55.68
55550;BME280;41397;49.972;18.944;2023-03-04T14:05:22;101572.88;;;7.76;55.97
55550;BME280;41397;49.972;18.944;2023-03-04T14:08:24;101579.55;;;7.70;55.53
55550;BME280;41397;49.972;18.944;2023-03-04T14:11:35;101573.31;;;7.68;55.65
55550;BME280;41397;49.972;18.944;2023-03-04T14:14:47;101575.96;;;7.70;55.58
55550;BME280;41397;49.972;18.944;2023-03-04T14:17:58;101572.07;;;7.74;55.87
55550;BME280;41397;49.972;18.944;2023-03-04T14:21:00;101570.76;;;7.65;55.58
55550;BME280;41397;49.972;18.944;2023-03-04T14:24:07;101568.12;;;7.64;55.69
55550;BME280;41397;49.972;18.944;2023-03-04T14:27:16;101573.66;;;7.62;55.87
55550;BME280;41397;49.972;18.944;2023-03-04T14:30:26;101581.66;;;7.65;55.74
55550;BME280;41397;49.972;18.944;2023-03-04T14:33:29;101579.11;;;7.62;56.12
55550;BME280;41397;49.972;18.944;2023-03-04T14:36:35;101574.54;;;7.63;56.34
55550;BME280;41397;49.972;18.944;2023-03-04T14:39:37;101573.31;;;7.68;56.05
55550;BME280;41397;49.972;18.944;2023-03-04T14:42:43;101578.13;;;7.63;56.06
55550;BME280;41397;49.972;18.944;2023-03-04T14:45:52;101577.09;;;7.66;56.23
55550;BME280;41397;49.972;18.944;2023-03-04T14:48:55;101566.11;;;7.67;56.27
55550;BME280;41397;49.972;18.944;2023-03-04T14:51:57;101570.70;;;7.67;56.25
55550;BME280;41397;49.972;18.944;2023-03-04T14:55:16;101577.95;;;7.66;56.22
55550;BME280;41397;49.972;18.944;2023-03-04T14:58:21;101572.50;;;7.66;56.63
55550;BME280;41397;49.972;18.944;2023-03-04T15:01:33;101575.34;;;7.65;56.40
55550;BME280;41397;49.972;18.944;2023-03-04T15:04:35;101574.18;;;7.69;56.12
55550;BME280;41397;49.972;18.944;2023-03-04T15:07:40;101579.18;;;7.61;56.14
55550;BME280;41397;49.972;18.944;2023-03-04T15:10:42;101577.18;;;7.64;56.47
55550;BME280;41397;49.972;18.944;2023-03-04T15:13:54;101564.95;;;7.55;56.08
55550;BME280;41397;49.972;18.944;2023-03-04T15:16:56;101573.12;;;7.55;56.05
55550;BME280;41397;49.972;18.944;2023-03-04T15:23:08;101556.46;;;7.62;56.06
55550;BME280;41397;49.972;18.944;2023-03-04T15:26:14;101557.76;;;7.54;55.88
55550;BME280;41397;49.972;18.944;2023-03-04T15:29:21;101559.44;;;7.57;56.49
55550;BME280;41397;49.972;18.944;2023-03-04T15:32:22;101550.58;;;7.53;56.26
55550;BME280;41397;49.972;18.944;2023-03-04T15:35:27;101541.17;;;7.59;56.46
55550;BME280;41397;49.972;18.944;2023-03-04T15:38:29;101547.50;;;7.60;56.61
55550;BME280;41397;49.972;18.944;2023-03-04T15:41:31;101541.36;;;7.56;56.68
55550;BME280;41397;49.972;18.944;2023-03-04T15:44:32;101545.82;;;7.57;56.53
55550;BME280;41397;49.972;18.944;2023-03-04T15:47:33;101537.48;;;7.60;56.71
55550;BME280;41397;49.972;18.944;2023-03-04T15:50:39;101539.25;;;7.61;56.71
55550;BME280;41397;49.972;18.944;2023-03-04T15:53:46;101540.20;;;7.60;56.53
55550;BME280;41397;49.972;18.944;2023-03-04T15:56:48;101543.90;;;7.59;56.93
55550;BME280;41397;49.972;18.944;2023-03-04T15:59:50;101531.16;;;7.60;56.82
55550;BME280;41397;49.972;18.944;2023-03-04T16:02:53;101535.62;;;7.61;56.83
55550;BME280;41397;49.972;18.944;2023-03-04T16:05:56;101526.70;;;7.59;56.87
55550;BME280;41397;49.972;18.944;2023-03-04T16:08:59;101534.86;;;7.59;57.15
55550;BME280;41397;49.972;18.944;2023-03-04T16:12:11;101530.28;;;7.59;57.05
55550;BME280;41397;49.972;18.944;2023-03-04T16:15:18;101526.95;;;7.54;57.13
55550;BME280;41397;49.972;18.944;2023-03-04T16:18:20;101527.92;;;7.53;57.10
55550;BME280;41397;49.972;18.944;2023-03-04T16:21:23;101534.41;;;7.50;57.17
55550;BME280;41397;49.972;18.944;2023-03-04T16:24:27;101535.37;;;7.49;57.26
55550;BME280;41397;49.972;18.944;2023-03-04T16:27:34;101542.04;;;7.44;57.09
55550;BME280;41397;49.972;18.944;2023-03-04T16:30:36;101539.95;;;7.49;57.10
55550;BME280;41397;49.972;18.944;2023-03-04T16:33:39;101539.95;;;7.49;57.09
55550;BME280;41397;49.972;18.944;2023-03-04T16:36:41;101533.62;;;7.48;57.28
55550;BME280;41397;49.972;18.944;2023-03-04T16:42:14;101538.27;;;7.46;57.62
55550;BME280;41397;49.972;18.944;2023-03-04T16:45:24;101540.30;;;7.43;57.25
55550;BME280;41397;49.972;18.944;2023-03-04T16:48:26;101537.83;;;7.38;57.53
55550;BME280;41397;49.972;18.944;2023-03-04T16:51:28;101547.73;;;7.39;57.73
55550;BME280;41397;49.972;18.944;2023-03-04T16:54:32;101543.96;;;7.42;57.75
55550;BME280;41397;49.972;18.944;2023-03-04T16:57:35;101552.75;;;7.47;57.66
55550;BME280;41397;49.972;18.944;2023-03-04T17:00:36;101555.58;;;7.45;57.46
55550;BME280;41397;49.972;18.944;2023-03-04T17:03:38;101559.06;;;7.47;57.14
55550;BME280;41397;49.972;18.944;2023-03-04T17:06:39;101555.15;;;7.53;57.26
55550;BME280;41397;49.972;18.944;2023-03-04T17:09:42;101557.69;;;7.56;57.43
55550;BME280;41397;49.972;18.944;2023-03-04T17:12:43;101551.63;;;7.51;57.65
55550;BME280;41397;49.972;18.944;2023-03-04T17:15:45;101556.45;;;7.46;57.71
55550;BME280;41397;49.972;18.944;2023-03-04T17:18:47;101553.55;;;7.49;57.23
55550;BME280;41397;49.972;18.944;2023-03-04T17:21:49;101557.94;;;7.51;57.55
55550;BME280;41397;49.972;18.944;2023-03-04T17:24:50;101554.35;;;7.51;57.55
55550;BME280;41397;49.972;18.944;2023-03-04T17:27:52;101560.14;;;7.45;57.53
55550;BME280;41397;49.972;18.944;2023-03-04T17:30:54;101555.47;;;7.47;57.53
55550;BME280;41397;49.972;18.944;2023-03-04T17:33:55;101554.52;;;7.48;57.84
55550;BME280;41397;49.972;18.944;2023-03-04T17:36:57;101555.58;;;7.45;57.77
55550;BME280;41397;49.972;18.944;2023-03-04T17:39:59;101560.04;;;7.46;57.83
55550;BME280;41397;49.972;18.944;2023-03-04T17:43:01;101568.91;;;7.50;57.87
55550;BME280;41397;49.972;18.944;2023-03-04T17:46:10;101568.45;;;7.42;58.22
55550;BME280;41397;49.972;18.944;2023-03-04T17:49:13;101573.65;;;7.46;58.14
55550;BME280;41397;49.972;18.944;2023-03-04T17:52:15;101568.02;;;7.49;58.28